Time;durP1;ratioP1;P1;durP2;ratioP2;P2;SDS_P1;SDS_P2;PMS_P1;PMS_P2;Temp;Humidity;BMP_temperature;BMP_pressure;BME280_temperature;BME280_humidity;BME280_pressure;Samples;Min_cycle;Max_cycle;Signal;HPM_P1;HPM_P2
2022/08/12 00:43:43;;;;;;;0.00;0.00;;;;;;;;;;5088980;28;20297;-69
2022/08/12 00:48:54;;;;;;;0.00;0.00;;;;;;;;;;5087532;28;20517;-69
2022/08/12 00:51:21;;;;;;;0.00;0.00;;;;;;;;;;5081838;28;20302;-69
2022/08/12 00:53:48;;;;;;;0.00;0.00;;;;;;;;;;5087867;28;20304;-69
2022/08/12 00:56:14;;;;;;;0.00;0.00;;;;;;;;;;5080929;28;20239;-68
2022/08/12 00:58:50;;;;;;;0.00;0.00;;;;;;;;;;5088810;28;20227;-70
2022/08/12 01:01:17;;;;;;;0.00;0.00;;;;;;;;;;5081032;28;20238;-70
2022/08/12 01:12:00;;;;;;;0.00;0.00;;;;;;;;;;5086796;28;20287;-68
2022/08/12 01:14:27;;;;;;;0.00;0.00;;;;;;;;;;5082920;28;20231;-68
2022/08/12 01:16:56;;;;;;;0.00;0.00;;;;;;;;;;5085741;28;20415;-69
2022/08/12 01:19:23;;;;;;;0.00;0.00;;;;;;;;;;5083509;28;20433;-69
2022/08/12 01:22:17;;;;;;;0.00;0.00;;;;;;;;;;5085237;28;20450;-70
2022/08/12 01:24:53;;;;;;;0.00;0.00;;;;;;;;;;5082221;28;20192;-69
2022/08/12 01:27:21;;;;;;;0.00;0.00;;;;;;;;;;5087313;28;20246;-71
2022/08/12 01:29:48;;;;;;;0.00;0.00;;;;;;;;;;5082092;28;20230;-69
2022/08/12 01:32:18;;;;;;;0.00;0.00;;;;;;;;;;5087121;28;20305;-68
2022/08/12 01:34:46;;;;;;;0.00;0.00;;;;;;;;;;5081754;28;20203;-68
2022/08/12 01:37:13;;;;;;;0.00;0.00;;;;;;;;;;5087129;28;20241;-69
2022/08/12 01:39:42;;;;;;;0.00;0.00;;;;;;;;;;5081745;28;20199;-70
2022/08/12 01:42:10;;;;;;;0.00;0.00;;;;;;;;;;5090483;28;20337;-71
2022/08/12 01:44:37;;;;;;;0.05;0.05;;;;;;;;;;5085683;28;20204;-69
2022/08/12 01:47:07;;;;;;;0.00;0.00;;;;;;;;;;5090922;28;20244;-69
2022/08/12 01:49:44;;;;;;;0.00;0.00;;;;;;;;;;5086047;28;20209;-69
2022/08/12 01:52:19;;;;;;;0.00;0.00;;;;;;;;;;5091067;28;20588;-68
2022/08/12 01:54:48;;;;;;;0.00;0.00;;;;;;;;;;5085694;28;20431;-69
2022/08/12 01:57:19;;;;;;;0.00;0.00;;;;;;;;;;5090922;28;20250;-70
2022/08/12 01:59:48;;;;;;;0.00;0.00;;;;;;;;;;5085646;28;20259;-69
2022/08/12 02:02:17;;;;;;;0.00;0.00;;;;;;;;;;5090763;28;20462;-69
2022/08/12 02:13:22;;;;;;;0.00;0.00;;;;;;;;;;5095295;28;20245;-69
2022/08/12 02:15:55;;;;;;;0.00;0.00;;;;;;;;;;5080688;28;20566;-68
2022/08/12 02:18:24;;;;;;;0.00;0.00;;;;;;;;;;5094407;28;20258;-69
2022/08/12 02:21:07;;;;;;;0.00;0.00;;;;;;;;;;5081037;28;20302;-68
2022/08/12 02:23:35;;;;;;;0.00;0.00;;;;;;;;;;5092818;28;20238;-69
2022/08/12 02:26:05;;;;;;;0.00;0.00;;;;;;;;;;5082254;28;20249;-68
2022/08/12 02:28:33;;;;;;;0.00;0.00;;;;;;;;;;5092881;28;20203;-68
2022/08/12 02:31:03;;;;;;;0.00;0.00;;;;;;;;;;5081606;28;20297;-69
2022/08/12 02:33:30;;;;;;;0.00;0.00;;;;;;;;;;5093051;28;20295;-69
2022/08/12 02:35:56;;;;;;;0.10;0.10;;;;;;;;;;5081561;28;20341;-69
2022/08/12 02:38:23;;;;;;;0.00;0.00;;;;;;;;;;5093664;28;20219;-69
2022/08/12 02:40:52;;;;;;;0.00;0.00;;;;;;;;;;5080197;28;20239;-70
2022/08/12 02:43:21;;;;;;;0.00;0.00;;;;;;;;;;5094097;28;20207;-68
2022/08/12 02:45:52;;;;;;;0.00;0.00;;;;;;;;;;5079927;28;20249;-69
2022/08/12 02:48:23;;;;;;;0.00;0.00;;;;;;;;;;5094269;28;20446;-68
2022/08/12 02:50:51;;;;;;;0.00;0.00;;;;;;;;;;5080339;28;20293;-69
2022/08/12 02:53:18;;;;;;;0.10;0.10;;;;;;;;;;5093978;28;20210;-69
2022/08/12 02:55:45;;;;;;;0.00;0.00;;;;;;;;;;5079615;28;20258;-68
2022/08/12 02:58:12;;;;;;;0.10;0.10;;;;;;;;;;5094747;28;20297;-68
2022/08/12 03:00:39;;;;;;;0.00;0.00;;;;;;;;;;5078553;28;20256;-68
2022/08/12 03:03:07;;;;;;;0.00;0.00;;;;;;;;;;5095557;28;20221;-69
2022/08/12 03:05:35;;;;;;;0.00;0.00;;;;;;;;;;5078035;28;20252;-69
2022/08/12 03:08:03;;;;;;;0.00;0.00;;;;;;;;;;5095801;28;20203;-68
2022/08/12 03:10:32;;;;;;;0.00;0.00;;;;;;;;;;5077394;28;20242;-69
2022/08/12 03:13:00;;;;;;;0.00;0.00;;;;;;;;;;5096350;28;20218;-69
2022/08/12 03:15:26;;;;;;;0.00;0.00;;;;;;;;;;5076854;28;20514;-69
2022/08/12 03:18:02;;;;;;;0.00;0.00;;;;;;;;;;5096934;28;20210;-68
2022/08/12 03:20:31;;;;;;;0.00;0.00;;;;;;;;;;5077001;28;20456;-69
2022/08/12 03:22:59;;;;;;;0.00;0.00;;;;;;;;;;5096248;28;20207;-69
2022/08/12 03:25:27;;;;;;;0.10;0.10;;;;;;;;;;5076414;28;20306;-69
2022/08/12 03:27:55;;;;;;;0.00;0.00;;;;;;;;;;5096508;28;20248;-69
2022/08/12 03:30:22;;;;;;;0.00;0.00;;;;;;;;;;5075795;28;20235;-70
2022/08/12 03:32:49;;;;;;;0.00;0.00;;;;;;;;;;5097074;28;20450;-70
2022/08/12 03:35:17;;;;;;;0.00;0.00;;;;;;;;;;5074890;28;20275;-70
2022/08/12 03:37:46;;;;;;;0.00;0.00;;;;;;;;;;5097390;28;20275;-70
2022/08/12 03:41:32;;;;;;;0.00;0.00;;;;;;;;;;5074723;28;20484;-70
2022/08/12 04:02:13;;;;;;;0.00;0.00;;;;;;;;;;5088317;28;20256;-69
2022/08/12 04:04:43;;;;;;;0.10;0.10;;;;;;;;;;5082084;28;20485;-70
2022/08/12 04:07:10;;;;;;;0.00;0.00;;;;;;;;;;5088225;28;20298;-70
2022/08/12 04:09:39;;;;;;;0.00;0.00;;;;;;;;;;5082816;28;20203;-69
2022/08/12 04:14:51;;;;;;;0.00;0.00;;;;;;;;;;5082997;28;20193;-71
2022/08/12 04:17:18;;;;;;;0.08;0.08;;;;;;;;;;5088390;28;20244;-70
2022/08/12 04:19:46;;;;;;;0.00;0.00;;;;;;;;;;5082931;28;20428;-69
2022/08/12 04:22:13;;;;;;;0.10;0.10;;;;;;;;;;5088199;28;20237;-70
2022/08/12 04:24:44;;;;;;;0.00;0.00;;;;;;;;;;5082991;28;20214;-69
2022/08/12 04:27:11;;;;;;;0.00;0.00;;;;;;;;;;5088267;28;20301;-70
2022/08/12 04:29:38;;;;;;;0.00;0.00;;;;;;;;;;5082592;28;20209;-70
2022/08/12 04:32:05;;;;;;;0.00;0.00;;;;;;;;;;5087875;28;20252;-69
2022/08/12 04:34:32;;;;;;;0.10;0.10;;;;;;;;;;5082992;28;20210;-69
2022/08/12 04:36:59;;;;;;;0.00;0.00;;;;;;;;;;5087216;28;20490;-69
2022/08/12 04:39:26;;;;;;;0.00;0.00;;;;;;;;;;5083881;28;20246;-70
2022/08/12 04:41:54;;;;;;;0.00;0.00;;;;;;;;;;5086143;28;20544;-70
2022/08/12 04:44:20;;;;;;;0.00;0.00;;;;;;;;;;5084480;28;20217;-70
2022/08/12 04:46:46;;;;;;;0.00;0.00;;;;;;;;;;5085457;28;20300;-70
2022/08/12 04:49:13;;;;;;;0.00;0.00;;;;;;;;;;5085162;28;20257;-70
2022/08/12 04:51:40;;;;;;;0.00;0.00;;;;;;;;;;5084356;28;20257;-70
2022/08/12 04:54:06;;;;;;;0.00;0.00;;;;;;;;;;5085362;28;20203;-70
2022/08/12 04:56:33;;;;;;;0.10;0.10;;;;;;;;;;5083435;28;20239;-70
2022/08/12 04:59:00;;;;;;;0.00;0.00;;;;;;;;;;5086759;28;20274;-70
2022/08/12 05:01:29;;;;;;;0.00;0.00;;;;;;;;;;5082234;28;20417;-70
2022/08/12 05:03:56;;;;;;;0.00;0.00;;;;;;;;;;5086938;28;20205;-70
2022/08/12 05:06:23;;;;;;;0.00;0.00;;;;;;;;;;5081990;28;20455;-70
2022/08/12 05:08:49;;;;;;;0.00;0.00;;;;;;;;;;5087737;28;20203;-69
2022/08/12 05:11:18;;;;;;;0.00;0.00;;;;;;;;;;5080964;28;20248;-70
2022/08/12 05:13:45;;;;;;;0.00;0.00;;;;;;;;;;5088453;28;20204;-70
2022/08/12 05:16:13;;;;;;;0.00;0.00;;;;;;;;;;5079504;28;20245;-69
2022/08/12 05:18:40;;;;;;;0.00;0.00;;;;;;;;;;5089139;28;20363;-70
2022/08/12 05:21:07;;;;;;;0.00;0.00;;;;;;;;;;5079694;28;20467;-69
2022/08/12 05:23:35;;;;;;;0.00;0.00;;;;;;;;;;5089849;28;20234;-70
2022/08/12 05:26:02;;;;;;;0.00;0.00;;;;;;;;;;5079032;28;20238;-70
2022/08/12 05:28:29;;;;;;;0.00;0.00;;;;;;;;;;5090720;28;20205;-70
2022/08/12 05:30:56;;;;;;;0.00;0.00;;;;;;;;;;5078140;28;20525;-70
2022/08/12 05:33:34;;;;;;;0.00;0.00;;;;;;;;;;5091429;28;20200;-69
2022/08/12 05:36:01;;;;;;;0.00;0.00;;;;;;;;;;5078971;28;20244;-71
2022/08/12 05:41:19;;;;;;;0.00;0.00;;;;;;;;;;5080418;28;20252;-69
2022/08/12 05:43:46;;;;;;;0.00;0.00;;;;;;;;;;5088193;28;20366;-70
2022/08/12 05:46:12;;;;;;;0.00;0.00;;;;;;;;;;5080563;28;20242;-70
2022/08/12 05:48:40;;;;;;;0.00;0.00;;;;;;;;;;5088790;28;20206;-70
2022/08/12 05:51:06;;;;;;;0.10;0.10;;;;;;;;;;5079573;28;20449;-70
2022/08/12 05:53:33;;;;;;;0.00;0.00;;;;;;;;;;5089479;28;20200;-70
2022/08/12 05:55:59;;;;;;;0.00;0.00;;;;;;;;;;5078509;28;20344;-70
2022/08/12 05:58:26;;;;;;;0.00;0.00;;;;;;;;;;5090303;28;20228;-70
2022/08/12 06:00:55;;;;;;;0.10;0.10;;;;;;;;;;5076967;28;20294;-70
2022/08/12 06:03:22;;;;;;;0.00;0.00;;;;;;;;;;5090780;28;20321;-69
2022/08/12 06:05:50;;;;;;;0.00;0.00;;;;;;;;;;5077681;28;20471;-69
2022/08/12 06:08:17;;;;;;;0.00;0.00;;;;;;;;;;5091933;28;20211;-71
2022/08/12 06:10:44;;;;;;;0.00;0.00;;;;;;;;;;5076560;28;20265;-70
2022/08/12 06:13:14;;;;;;;0.10;0.10;;;;;;;;;;5091843;28;20230;-70
2022/08/12 06:15:40;;;;;;;0.00;0.00;;;;;;;;;;5076309;28;20451;-71
2022/08/12 06:18:07;;;;;;;0.00;0.00;;;;;;;;;;5092818;28;20399;-72
2022/08/12 06:20:34;;;;;;;0.00;0.00;;;;;;;;;;5074814;28;20257;-71
2022/08/12 06:23:02;;;;;;;0.00;0.00;;;;;;;;;;5093090;28;20224;-72
2022/08/12 06:25:29;;;;;;;0.00;0.00;;;;;;;;;;5074474;28;20273;-72
2022/08/12 06:27:55;;;;;;;0.00;0.00;;;;;;;;;;5096675;28;20273;-70
2022/08/12 06:30:22;;;;;;;0.00;0.00;;;;;;;;;;5077153;28;20213;-71
2022/08/12 06:32:51;;;;;;;0.00;0.00;;;;;;;;;;5098188;28;20235;-71
2022/08/12 06:35:17;;;;;;;0.00;0.00;;;;;;;;;;5076359;28;20206;-71
2022/08/12 06:37:45;;;;;;;0.00;0.00;;;;;;;;;;5099212;28;20203;-71
2022/08/12 06:40:13;;;;;;;0.00;0.00;;;;;;;;;;5075394;28;20218;-71
2022/08/12 06:42:51;;;;;;;0.00;0.00;;;;;;;;;;5099452;28;20231;-71
2022/08/12 06:45:17;;;;;;;0.00;0.00;;;;;;;;;;5076137;28;20187;-71
2022/08/12 06:47:43;;;;;;;0.00;0.00;;;;;;;;;;5099367;28;20280;-69
2022/08/12 06:50:14;;;;;;;0.00;0.00;;;;;;;;;;5075252;28;20204;-71
2022/08/12 06:52:41;;;;;;;0.00;0.00;;;;;;;;;;5099222;28;20212;-72
2022/08/12 06:55:09;;;;;;;0.00;0.00;;;;;;;;;;5074762;28;20231;-71
2022/08/12 06:57:53;;;;;;;0.00;0.00;;;;;;;;;;5099647;28;20276;-72
2022/08/12 07:00:22;;;;;;;0.00;0.00;;;;;;;;;;5076672;28;20412;-72
2022/08/12 07:02:49;;;;;;;0.08;0.08;;;;;;;;;;5098290;28;20415;-73
2022/08/12 07:05:16;;;;;;;0.00;0.00;;;;;;;;;;5075518;28;20453;-71
2022/08/12 07:07:45;;;;;;;0.00;0.00;;;;;;;;;;5098473;28;20291;-72
2022/08/12 07:10:11;;;;;;;0.00;0.00;;;;;;;;;;5074560;28;20215;-72
2022/08/12 07:12:37;;;;;;;0.00;0.00;;;;;;;;;;5099950;28;20284;-73
2022/08/12 07:15:04;;;;;;;0.00;0.00;;;;;;;;;;5082920;28;20272;-71
2022/08/12 07:17:35;;;;;;;0.00;0.00;;;;;;;;;;5098580;28;20380;-73
2022/08/12 07:20:02;;;;;;;0.00;0.00;;;;;;;;;;5084247;28;20230;-72
2022/08/12 07:22:28;;;;;;;0.00;0.00;;;;;;;;;;5089475;28;20239;-69
2022/08/12 07:27:39;;;;;;;0.00;0.00;;;;;;;;;;5071720;28;20438;-68
2022/08/12 07:30:06;;;;;;;0.00;0.00;;;;;;;;;;5074799;28;20204;-70
2022/08/12 07:32:34;;;;;;;0.00;0.00;;;;;;;;;;5098998;28;20430;-68
2022/08/12 07:35:01;;;;;;;0.00;0.00;;;;;;;;;;5084293;28;20253;-68
2022/08/12 07:37:27;;;;;;;0.03;0.03;;;;;;;;;;5089150;28;20302;-68
2022/08/12 07:39:53;;;;;;;0.00;0.00;;;;;;;;;;5082938;28;20203;-70
2022/08/12 07:42:20;;;;;;;0.00;0.00;;;;;;;;;;5089284;28;20414;-71
2022/08/12 07:44:47;;;;;;;0.00;0.00;;;;;;;;;;5083955;28;20271;-70
2022/08/12 07:47:13;;;;;;;0.00;0.00;;;;;;;;;;5089103;28;20302;-75
2022/08/12 07:49:41;;;;;;;0.00;0.00;;;;;;;;;;5083304;28;20204;-76
2022/08/12 07:52:07;;;;;;;0.00;0.00;;;;;;;;;;5089124;28;20253;-76
2022/08/12 07:54:34;;;;;;;0.00;0.00;;;;;;;;;;5083468;28;20560;-76
2022/08/12 07:57:00;;;;;;;0.00;0.00;;;;;;;;;;5088260;28;20460;-78
2022/08/12 07:59:26;;;;;;;0.00;0.00;;;;;;;;;;5084085;28;20206;-76
2022/08/12 08:01:59;;;;;;;0.00;0.00;;;;;;;;;;5087027;28;20254;-77
2022/08/12 08:07:14;;;;;;;0.00;0.00;;;;;;;;;;5088899;28;20265;-77
2022/08/12 08:09:41;;;;;;;0.00;0.00;;;;;;;;;;5083386;28;20444;-77
2022/08/12 08:14:54;;;;;;;0.00;0.00;;;;;;;;;;5083170;28;20203;-75
2022/08/12 08:17:21;;;;;;;0.00;0.00;;;;;;;;;;5088410;28;20258;-77
2022/08/12 08:19:51;;;;;;;0.00;0.00;;;;;;;;;;5082828;28;20223;-77
2022/08/12 08:22:19;;;;;;;0.00;0.00;;;;;;;;;;5088449;28;20268;-76
2022/08/12 08:24:45;;;;;;;0.00;0.00;;;;;;;;;;5082901;28;20270;-77
2022/08/12 08:27:12;;;;;;;0.00;0.00;;;;;;;;;;5088304;28;20242;-77
2022/08/12 08:29:39;;;;;;;0.00;0.00;;;;;;;;;;5082638;28;20226;-76
2022/08/12 08:32:09;;;;;;;0.00;0.00;;;;;;;;;;5088190;28;20305;-77
2022/08/12 08:34:36;;;;;;;0.00;0.00;;;;;;;;;;5082493;28;20226;-76
2022/08/12 08:37:03;;;;;;;0.00;0.00;;;;;;;;;;5087784;28;20288;-78
2022/08/12 08:39:30;;;;;;;0.00;0.00;;;;;;;;;;5082671;28;20242;-76
2022/08/12 08:44:42;;;;;;;0.00;0.00;;;;;;;;;;5082726;28;20229;-78
2022/08/12 08:47:09;;;;;;;0.00;0.00;;;;;;;;;;5088047;28;20239;-77
2022/08/12 08:49:36;;;;;;;0.00;0.00;;;;;;;;;;5082482;28;20305;-77
2022/08/12 08:52:02;;;;;;;0.00;0.00;;;;;;;;;;5087381;28;20250;-76
2022/08/12 08:54:32;;;;;;;0.00;0.00;;;;;;;;;;5082395;28;20245;-78
2022/08/12 08:57:00;;;;;;;0.00;0.00;;;;;;;;;;5086829;28;20246;-76
2022/08/12 08:59:27;;;;;;;0.00;0.00;;;;;;;;;;5083178;28;20378;-76
2022/08/12 09:01:54;;;;;;;0.00;0.00;;;;;;;;;;5086143;28;20295;-76
2022/08/12 09:04:22;;;;;;;0.00;0.00;;;;;;;;;;5083422;28;20227;-77
2022/08/12 09:06:57;;;;;;;0.00;0.00;;;;;;;;;;5085665;28;20287;-77
2022/08/12 09:09:23;;;;;;;0.00;0.00;;;;;;;;;;5083229;28;20405;-76
2022/08/12 09:14:35;;;;;;;0.00;0.00;;;;;;;;;;5082247;28;20253;-78
2022/08/12 09:17:02;;;;;;;0.00;0.00;;;;;;;;;;5087152;28;20238;-77
2022/08/12 09:19:28;;;;;;;0.00;0.00;;;;;;;;;;5082710;28;20377;-77
2022/08/12 09:21:56;;;;;;;0.00;0.00;;;;;;;;;;5085902;28;20352;-78
2022/08/12 09:24:22;;;;;;;0.00;0.00;;;;;;;;;;5083143;28;20230;-79
2022/08/12 09:26:49;;;;;;;0.00;0.00;;;;;;;;;;5085334;28;20239;-77
2022/08/12 09:29:19;;;;;;;0.03;0.03;;;;;;;;;;5084201;28;20381;-76
2022/08/12 09:31:50;;;;;;;0.00;0.00;;;;;;;;;;5084904;28;20249;-76
2022/08/12 09:34:17;;;;;;;0.00;0.00;;;;;;;;;;5083740;28;20187;-78
2022/08/12 09:36:44;;;;;;;0.00;0.00;;;;;;;;;;5084595;28;20352;-78
2022/08/12 09:39:12;;;;;;;0.00;0.00;;;;;;;;;;5084715;28;20203;-73
2022/08/12 09:41:38;;;;;;;0.00;0.00;;;;;;;;;;5083760;28;20304;-76
2022/08/12 09:46:50;;;;;;;0.00;0.00;;;;;;;;;;5085172;28;20283;-77
2022/08/12 09:49:17;;;;;;;0.00;0.00;;;;;;;;;;5083975;28;20253;-76
2022/08/12 09:51:46;;;;;;;0.00;0.00;;;;;;;;;;5084346;28;20325;-77
2022/08/12 09:54:13;;;;;;;0.00;0.00;;;;;;;;;;5084338;28;20372;-76
2022/08/12 09:56:40;;;;;;;0.00;0.00;;;;;;;;;;5083891;28;20625;-77
2022/08/12 09:59:08;;;;;;;0.00;0.00;;;;;;;;;;5085309;28;20203;-76
2022/08/12 10:01:37;;;;;;;0.00;0.00;;;;;;;;;;5083956;28;20297;-73
2022/08/12 10:04:09;;;;;;;0.00;0.00;;;;;;;;;;5088836;28;20424;-72
2022/08/12 10:06:35;;;;;;;0.00;0.00;;;;;;;;;;5087256;28;20297;-71
2022/08/12 10:09:02;;;;;;;0.00;0.00;;;;;;;;;;5089499;28;20203;-71
2022/08/12 10:14:12;;;;;;;0.00;0.00;;;;;;;;;;5087783;28;20222;-71
2022/08/12 10:16:42;;;;;;;0.00;0.00;;;;;;;;;;5087281;28;20238;-71
2022/08/12 10:19:10;;;;;;;0.00;0.00;;;;;;;;;;5088047;28;20192;-71
2022/08/12 10:21:37;;;;;;;0.00;0.00;;;;;;;;;;5086903;28;20258;-72
2022/08/12 10:24:04;;;;;;;0.00;0.00;;;;;;;;;;5088610;28;20238;-74
2022/08/12 10:31:59;;;;;;;0.00;0.00;;;;;;;;;;5089626;28;20436;-72
2022/08/12 10:34:27;;;;;;;0.00;0.00;;;;;;;;;;5085950;28;20275;-71
2022/08/12 10:36:57;;;;;;;0.00;0.00;;;;;;;;;;5088526;28;20256;-71
2022/08/12 10:39:24;;;;;;;0.00;0.00;;;;;;;;;;5085997;28;20202;-71
2022/08/12 10:44:35;;;;;;;0.00;0.00;;;;;;;;;;5084660;28;20363;-71
2022/08/12 10:47:02;;;;;;;0.00;0.00;;;;;;;;;;5089799;28;20264;-72
2022/08/12 10:49:33;;;;;;;0.00;0.00;;;;;;;;;;5085037;28;20212;-71
2022/08/12 10:52:00;;;;;;;0.00;0.00;;;;;;;;;;5089693;28;20238;-72
2022/08/12 10:54:26;;;;;;;0.00;0.00;;;;;;;;;;5085555;28;20344;-72
2022/08/12 10:56:52;;;;;;;0.00;0.00;;;;;;;;;;5088658;28;20405;-71
2022/08/12 10:59:20;;;;;;;0.00;0.00;;;;;;;;;;5086261;28;20209;-72
2022/08/12 11:01:47;;;;;;;0.00;0.00;;;;;;;;;;5087460;28;20234;-73
2022/08/12 11:04:13;;;;;;;0.00;0.00;;;;;;;;;;5086834;28;20230;-72
2022/08/12 11:06:43;;;;;;;0.00;0.00;;;;;;;;;;5086530;28;20312;-73
2022/08/12 11:09:09;;;;;;;0.00;0.00;;;;;;;;;;5087157;28;20239;-72
2022/08/12 11:11:36;;;;;;;0.00;0.00;;;;;;;;;;5086091;28;20253;-71
2022/08/12 11:14:02;;;;;;;0.00;0.00;;;;;;;;;;5086889;28;20294;-72
2022/08/12 11:16:31;;;;;;;0.00;0.00;;;;;;;;;;5084949;28;20488;-72
2022/08/12 11:18:57;;;;;;;0.00;0.00;;;;;;;;;;5088914;28;20203;-72
2022/08/12 11:21:24;;;;;;;0.00;0.00;;;;;;;;;;5084383;28;20424;-72
2022/08/12 11:23:51;;;;;;;0.00;0.00;;;;;;;;;;5089786;28;20249;-72
2022/08/12 11:26:18;;;;;;;0.00;0.00;;;;;;;;;;5083406;28;20309;-72
2022/08/12 11:28:44;;;;;;;0.00;0.00;;;;;;;;;;5090232;28;20203;-74
2022/08/12 11:31:11;;;;;;;0.00;0.00;;;;;;;;;;5082221;28;20305;-72
2022/08/12 11:33:37;;;;;;;0.00;0.00;;;;;;;;;;5091166;28;20202;-73
2022/08/12 11:36:04;;;;;;;0.00;0.00;;;;;;;;;;5081681;28;20244;-75
2022/08/12 11:38:31;;;;;;;0.00;0.00;;;;;;;;;;5091510;28;20204;-73
2022/08/12 11:40:59;;;;;;;0.00;0.00;;;;;;;;;;5080547;28;20261;-74
2022/08/12 11:43:25;;;;;;;0.00;0.00;;;;;;;;;;5092004;28;20227;-74
2022/08/12 11:45:51;;;;;;;0.00;0.00;;;;;;;;;;5079616;28;20238;-73
2022/08/12 11:48:18;;;;;;;0.00;0.00;;;;;;;;;;5092781;28;20203;-73
2022/08/12 11:50:44;;;;;;;0.00;0.00;;;;;;;;;;5078569;28;20301;-73
2022/08/12 11:53:10;;;;;;;0.00;0.00;;;;;;;;;;5093860;28;20219;-73
2022/08/12 11:55:37;;;;;;;0.00;0.00;;;;;;;;;;5077779;28;20245;-72
2022/08/12 11:58:05;;;;;;;0.00;0.00;;;;;;;;;;5095111;28;20458;-73
2022/08/12 12:00:31;;;;;;;0.00;0.00;;;;;;;;;;5076548;28;20301;-72
2022/08/12 12:02:57;;;;;;;0.00;0.00;;;;;;;;;;5095886;28;20242;-73
2022/08/12 12:05:24;;;;;;;0.00;0.00;;;;;;;;;;5075306;28;20503;-73
2022/08/12 12:07:51;;;;;;;0.00;0.00;;;;;;;;;;5096529;28;20204;-72
2022/08/12 12:10:18;;;;;;;0.00;0.00;;;;;;;;;;5074436;28;20203;-72
2022/08/12 12:12:45;;;;;;;0.00;0.00;;;;;;;;;;5096777;28;20242;-74
2022/08/12 12:15:13;;;;;;;0.00;0.00;;;;;;;;;;5073548;28;20199;-72
2022/08/12 12:17:40;;;;;;;0.00;0.00;;;;;;;;;;5097622;28;20211;-72
2022/08/12 12:20:08;;;;;;;0.00;0.00;;;;;;;;;;5072962;28;20347;-73
2022/08/12 12:22:35;;;;;;;0.00;0.00;;;;;;;;;;5098142;28;20211;-74
2022/08/12 12:25:01;;;;;;;0.00;0.00;;;;;;;;;;5082705;28;20223;-73
2022/08/12 12:27:27;;;;;;;0.00;0.00;;;;;;;;;;5088389;28;20448;-72
2022/08/12 12:29:55;;;;;;;0.00;0.00;;;;;;;;;;5082944;28;20216;-73
2022/08/12 12:32:23;;;;;;;0.00;0.00;;;;;;;;;;5088080;28;20246;-73
2022/08/12 12:34:50;;;;;;;0.00;0.00;;;;;;;;;;5083172;28;20230;-73
2022/08/12 12:37:16;;;;;;;0.00;0.00;;;;;;;;;;5088211;28;20268;-74
2022/08/12 12:39:42;;;;;;;0.00;0.00;;;;;;;;;;5082835;28;20211;-72
2022/08/12 12:42:09;;;;;;;0.00;0.00;;;;;;;;;;5088297;28;20242;-73
2022/08/12 12:44:35;;;;;;;0.00;0.00;;;;;;;;;;5082899;28;20447;-72
2022/08/12 12:47:01;;;;;;;0.00;0.00;;;;;;;;;;5087602;28;20334;-74
2022/08/12 12:49:29;;;;;;;0.00;0.00;;;;;;;;;;5082679;28;20249;-74
2022/08/12 12:51:56;;;;;;;0.00;0.00;;;;;;;;;;5086716;28;20301;-74
2022/08/12 12:54:23;;;;;;;0.00;0.00;;;;;;;;;;5083579;28;20274;-73
2022/08/12 12:56:51;;;;;;;0.00;0.00;;;;;;;;;;5085844;28;20438;-73
2022/08/12 12:59:19;;;;;;;0.00;0.00;;;;;;;;;;5084291;28;20203;-74
2022/08/12 13:01:45;;;;;;;0.00;0.00;;;;;;;;;;5085213;28;20284;-73
2022/08/12 13:04:12;;;;;;;0.00;0.00;;;;;;;;;;5084596;28;20227;-73
2022/08/12 13:06:40;;;;;;;0.00;0.00;;;;;;;;;;5084174;28;20254;-72
2022/08/12 13:09:08;;;;;;;0.00;0.00;;;;;;;;;;5085451;28;20312;-72
2022/08/12 13:11:36;;;;;;;0.00;0.00;;;;;;;;;;5083574;28;20238;-72
2022/08/12 13:14:03;;;;;;;0.00;0.00;;;;;;;;;;5086018;28;20199;-73
2022/08/12 13:16:29;;;;;;;0.00;0.00;;;;;;;;;;5082690;28;20322;-75
2022/08/12 13:18:56;;;;;;;0.00;0.00;;;;;;;;;;5080864;28;20522;-71
2022/08/12 13:21:22;;;;;;;0.00;0.00;;;;;;;;;;5081649;28;20238;-72
2022/08/12 13:23:50;;;;;;;0.00;0.00;;;;;;;;;;5080989;28;20234;-73
2022/08/12 13:26:17;;;;;;;0.00;0.00;;;;;;;;;;5080952;28;20243;-71
2022/08/12 13:28:45;;;;;;;0.05;0.05;;;;;;;;;;5088296;28;20203;-73
2022/08/12 13:31:12;;;;;;;0.00;0.00;;;;;;;;;;5080200;28;20238;-72
2022/08/12 13:33:39;;;;;;;0.00;0.00;;;;;;;;;;5080790;28;20225;-73
2022/08/12 13:36:06;;;;;;;0.00;0.00;;;;;;;;;;5079490;28;20238;-75
2022/08/12 13:38:37;;;;;;;0.00;0.00;;;;;;;;;;5093664;28;20230;-74
2022/08/12 13:41:05;;;;;;;0.00;0.00;;;;;;;;;;5083589;28;20301;-74
2022/08/12 13:43:32;;;;;;;0.00;0.00;;;;;;;;;;5093975;28;20218;-74
2022/08/12 13:45:58;;;;;;;0.00;0.00;;;;;;;;;;5082392;28;20353;-75
2022/08/12 13:48:25;;;;;;;0.00;0.00;;;;;;;;;;5094678;28;20442;-74
2022/08/12 13:50:51;;;;;;;0.00;0.00;;;;;;;;;;5081482;28;20245;-74
2022/08/12 13:53:18;;;;;;;0.00;0.00;;;;;;;;;;5095273;28;20405;-73
2022/08/12 13:55:45;;;;;;;0.00;0.00;;;;;;;;;;5080780;28;20311;-73
2022/08/12 13:58:15;;;;;;;0.00;0.00;;;;;;;;;;5095853;28;20196;-73
2022/08/12 14:00:44;;;;;;;0.00;0.00;;;;;;;;;;5080346;28;20238;-73
2022/08/12 14:03:13;;;;;;;0.00;0.00;;;;;;;;;;5096083;28;20296;-73
2022/08/12 14:05:39;;;;;;;0.00;0.00;;;;;;;;;;5079597;28;20254;-72
2022/08/12 14:08:07;;;;;;;0.00;0.00;;;;;;;;;;5096542;28;20253;-72
2022/08/12 14:10:37;;;;;;;0.00;0.00;;;;;;;;;;5078862;28;20245;-72
2022/08/12 14:13:05;;;;;;;0.00;0.00;;;;;;;;;;5096911;28;20204;-73
2022/08/12 14:15:35;;;;;;;0.00;0.00;;;;;;;;;;5078987;28;20297;-73
2022/08/12 14:18:06;;;;;;;0.00;0.00;;;;;;;;;;5096969;28;20242;-72
2022/08/12 14:20:32;;;;;;;0.00;0.00;;;;;;;;;;5078647;28;20245;-72
2022/08/12 14:22:59;;;;;;;0.00;0.00;;;;;;;;;;5097530;28;20511;-73
2022/08/12 14:25:27;;;;;;;0.00;0.00;;;;;;;;;;5077650;28;20239;-74
2022/08/12 14:27:54;;;;;;;0.00;0.00;;;;;;;;;;5097924;28;20333;-73
2022/08/12 14:30:20;;;;;;;0.00;0.00;;;;;;;;;;5076738;28;20490;-72
2022/08/12 14:32:48;;;;;;;0.00;0.00;;;;;;;;;;5098562;28;20218;-73
2022/08/12 14:35:14;;;;;;;0.00;0.00;;;;;;;;;;5075984;28;20200;-73
2022/08/12 14:37:42;;;;;;;0.00;0.00;;;;;;;;;;5099561;28;20231;-72
2022/08/12 14:40:10;;;;;;;0.00;0.00;;;;;;;;;;5075448;28;20231;-73
2022/08/12 14:42:37;;;;;;;0.00;0.00;;;;;;;;;;5099961;28;20261;-73
2022/08/12 14:45:04;;;;;;;0.00;0.00;;;;;;;;;;5084673;28;20542;-73
2022/08/12 14:47:30;;;;;;;0.00;0.00;;;;;;;;;;5072885;28;20203;-72
2022/08/12 14:49:58;;;;;;;0.00;0.00;;;;;;;;;;5084708;28;20274;-72
2022/08/12 14:52:24;;;;;;;0.00;0.00;;;;;;;;;;5090344;28;20254;-73
2022/08/12 14:54:51;;;;;;;0.00;0.00;;;;;;;;;;5085000;28;20435;-72
2022/08/12 14:57:18;;;;;;;0.00;0.00;;;;;;;;;;5090186;28;20488;-73
2022/08/12 15:02:28;;;;;;;0.00;0.00;;;;;;;;;;5090229;28;20444;-73
2022/08/12 15:04:57;;;;;;;0.00;0.00;;;;;;;;;;5084799;28;20255;-74
2022/08/12 15:07:25;;;;;;;0.00;0.00;;;;;;;;;;5090053;28;20607;-73
2022/08/12 15:09:52;;;;;;;0.00;0.00;;;;;;;;;;5084690;28;20207;-74
2022/08/12 15:12:18;;;;;;;0.00;0.00;;;;;;;;;;5089901;28;20304;-72
2022/08/12 15:14:45;;;;;;;0.00;0.00;;;;;;;;;;5084649;28;20310;-73
2022/08/12 15:17:11;;;;;;;0.00;0.00;;;;;;;;;;5089792;28;20454;-73
2022/08/12 15:19:37;;;;;;;0.00;0.00;;;;;;;;;;5084329;28;20233;-72
2022/08/12 15:22:04;;;;;;;0.00;0.00;;;;;;;;;;5089581;28;20610;-73
2022/08/12 15:24:36;;;;;;;0.00;0.00;;;;;;;;;;5084431;28;20483;-73
2022/08/12 15:27:05;;;;;;;0.00;0.00;;;;;;;;;;5089264;28;20309;-73
2022/08/12 15:29:32;;;;;;;0.00;0.00;;;;;;;;;;5084363;28;20208;-73
2022/08/12 15:32:00;;;;;;;0.00;0.00;;;;;;;;;;5088488;28;20303;-73
2022/08/12 15:34:26;;;;;;;0.00;0.00;;;;;;;;;;5084168;28;20262;-73
2022/08/12 15:36:53;;;;;;;0.00;0.00;;;;;;;;;;5087932;28;20353;-73
2022/08/12 15:39:19;;;;;;;0.00;0.00;;;;;;;;;;5085432;28;20209;-74
2022/08/12 15:41:47;;;;;;;0.00;0.00;;;;;;;;;;5087188;28;20529;-74
2022/08/12 15:44:14;;;;;;;0.00;0.00;;;;;;;;;;5085901;28;20207;-73
2022/08/12 15:46:40;;;;;;;0.00;0.00;;;;;;;;;;5085828;28;20309;-73
2022/08/12 15:49:06;;;;;;;0.00;0.00;;;;;;;;;;5086589;28;20406;-73
2022/08/12 15:51:34;;;;;;;0.00;0.00;;;;;;;;;;5084859;28;20239;-74
2022/08/12 15:54:07;;;;;;;0.00;0.00;;;;;;;;;;5087631;28;20234;-74
2022/08/12 15:56:36;;;;;;;0.00;0.00;;;;;;;;;;5084787;28;20238;-74
2022/08/12 15:59:04;;;;;;;0.00;0.00;;;;;;;;;;5086467;28;20203;-73
2022/08/12 16:01:30;;;;;;;0.00;0.00;;;;;;;;;;5084214;28;20262;-72
2022/08/12 16:03:58;;;;;;;0.00;0.00;;;;;;;;;;5088019;28;20271;-73
2022/08/12 16:06:24;;;;;;;0.00;0.00;;;;;;;;;;5083203;28;20316;-74
2022/08/12 16:08:50;;;;;;;0.00;0.00;;;;;;;;;;5088797;28;20399;-73
2022/08/12 16:11:19;;;;;;;0.00;0.00;;;;;;;;;;5082419;28;20306;-73
2022/08/12 16:13:45;;;;;;;0.00;0.00;;;;;;;;;;5089159;28;20408;-72
2022/08/12 16:16:13;;;;;;;0.00;0.00;;;;;;;;;;5081796;28;20235;-73
2022/08/12 16:18:41;;;;;;;0.00;0.00;;;;;;;;;;5089628;28;20265;-74
2022/08/12 16:21:09;;;;;;;0.00;0.00;;;;;;;;;;5080642;28;20246;-72
2022/08/12 16:23:35;;;;;;;0.00;0.00;;;;;;;;;;5090562;28;20463;-73
2022/08/12 16:26:03;;;;;;;0.00;0.00;;;;;;;;;;5079862;28;20254;-72
2022/08/12 16:28:30;;;;;;;0.00;0.00;;;;;;;;;;5090795;28;20207;-73
2022/08/12 16:30:57;;;;;;;0.00;0.00;;;;;;;;;;5079278;28;20580;-73
2022/08/12 16:33:31;;;;;;;0.00;0.00;;;;;;;;;;5091548;28;20203;-74
2022/08/12 16:35:57;;;;;;;0.00;0.00;;;;;;;;;;5079699;28;20427;-73
2022/08/12 16:38:24;;;;;;;0.00;0.00;;;;;;;;;;5091363;28;20210;-73
2022/08/12 16:40:51;;;;;;;0.00;0.00;;;;;;;;;;5078384;28;20599;-73
2022/08/12 16:43:23;;;;;;;0.00;0.00;;;;;;;;;;5092260;28;20274;-75